sensor_id;sensor_type;location;lat;lon;timestamp;temperature;humidity
69823;SHT31;57119;52.516;13.508;2023-04-25T00:01:37;8.42;87.78
69823;SHT31;57119;52.516;13.508;2023-04-25T00:04:03;8.40;87.49
69823;SHT31;57119;52.516;13.508;2023-04-25T00:06:31;8.34;87.53
69823;SHT31;57119;52.516;13.508;2023-04-25T00:08:57;8.34;87.63
69823;SHT31;57119;52.516;13.508;2023-04-25T00:11:23;8.27;87.80
69823;SHT31;57119;52.516;13.508;2023-04-25T00:13:49;8.33;87.51
69823;SHT31;57119;52.516;13.508;2023-04-25T00:16:15;8.31;87.46
69823;SHT31;57119;52.516;13.508;2023-04-25T00:18:42;8.34;87.28
69823;SHT31;57119;52.516;13.508;2023-04-25T00:21:07;8.40;86.58
69823;SHT31;57119;52.516;13.508;2023-04-25T00:23:33;8.45;86.14
69823;SHT31;57119;52.516;13.508;2023-04-25T00:26:01;8.45;86.01
69823;SHT31;57119;52.516;13.508;2023-04-25T00:28:27;8.41;86.23
69823;SHT31;57119;52.516;13.508;2023-04-25T00:30:52;8.38;86.09
69823;SHT31;57119;52.516;13.508;2023-04-25T00:33:17;8.40;85.79
69823;SHT31;57119;52.516;13.508;2023-04-25T00:35:43;8.47;85.50
69823;SHT31;57119;52.516;13.508;2023-04-25T00:38:08;8.44;85.59
69823;SHT31;57119;52.516;13.508;2023-04-25T00:40:33;8.44;85.44
69823;SHT31;57119;52.516;13.508;2023-04-25T00:42:59;8.51;85.26
69823;SHT31;57119;52.516;13.508;2023-04-25T00:45:28;8.52;85.03
69823;SHT31;57119;52.516;13.508;2023-04-25T00:47:54;8.55;85.18
69823;SHT31;57119;52.516;13.508;2023-04-25T00:50:19;8.52;85.11
69823;SHT31;57119;52.516;13.508;2023-04-25T00:52:45;8.54;85.08
69823;SHT31;57119;52.516;13.508;2023-04-25T00:55:12;8.54;85.28
69823;SHT31;57119;52.516;13.508;2023-04-25T00:57:37;8.50;85.35
69823;SHT31;57119;52.516;13.508;2023-04-25T01:00:05;8.47;85.45
69823;SHT31;57119;52.516;13.508;2023-04-25T01:02:32;8.45;85.50
69823;SHT31;57119;52.516;13.508;2023-04-25T01:04:58;8.45;85.53
69823;SHT31;57119;52.516;13.508;2023-04-25T01:07:24;8.51;85.33
69823;SHT31;57119;52.516;13.508;2023-04-25T01:09:51;8.52;85.22
69823;SHT31;57119;52.516;13.508;2023-04-25T01:12:17;8.54;85.32
69823;SHT31;57119;52.516;13.508;2023-04-25T01:14:42;8.50;85.51
69823;SHT31;57119;52.516;13.508;2023-04-25T01:17:08;8.51;85.49
69823;SHT31;57119;52.516;13.508;2023-04-25T01:19:34;8.48;85.52
69823;SHT31;57119;52.516;13.508;2023-04-25T01:21:59;8.42;85.57
69823;SHT31;57119;52.516;13.508;2023-04-25T01:24:25;8.44;85.67
69823;SHT31;57119;52.516;13.508;2023-04-25T01:26:51;8.47;85.67
69823;SHT31;57119;52.516;13.508;2023-04-25T01:29:17;8.51;85.23
69823;SHT31;57119;52.516;13.508;2023-04-25T01:31:44;8.54;85.33
69823;SHT31;57119;52.516;13.508;2023-04-25T01:34:10;8.54;85.33
69823;SHT31;57119;52.516;13.508;2023-04-25T01:36:35;8.58;85.35
69823;SHT31;57119;52.516;13.508;2023-04-25T01:39:01;8.58;85.15
69823;SHT31;57119;52.516;13.508;2023-04-25T01:41:27;8.58;85.21
69823;SHT31;57119;52.516;13.508;2023-04-25T01:43:52;8.58;85.12
69823;SHT31;57119;52.516;13.508;2023-04-25T01:46:18;8.60;85.19
69823;SHT31;57119;52.516;13.508;2023-04-25T01:48:44;8.55;85.27
69823;SHT31;57119;52.516;13.508;2023-04-25T01:51:09;8.62;84.88
69823;SHT31;57119;52.516;13.508;2023-04-25T01:53:36;8.60;84.95
69823;SHT31;57119;52.516;13.508;2023-04-25T01:56:02;8.65;84.78
69823;SHT31;57119;52.516;13.508;2023-04-25T01:58:27;8.65;84.71
69823;SHT31;57119;52.516;13.508;2023-04-25T02:00:53;8.65;84.70
69823;SHT31;57119;52.516;13.508;2023-04-25T02:03:18;8.65;84.68
69823;SHT31;57119;52.516;13.508;2023-04-25T02:05:43;8.65;84.62
69823;SHT31;57119;52.516;13.508;2023-04-25T02:08:09;8.68;84.66
69823;SHT31;57119;52.516;13.508;2023-04-25T02:10:35;8.67;84.95
69823;SHT31;57119;52.516;13.508;2023-04-25T02:13:00;8.68;84.72
69823;SHT31;57119;52.516;13.508;2023-04-25T02:15:26;8.72;84.91
69823;SHT31;57119;52.516;13.508;2023-04-25T02:17:52;8.73;84.73
69823;SHT31;57119;52.516;13.508;2023-04-25T02:20:19;8.69;84.71
69823;SHT31;57119;52.516;13.508;2023-04-25T02:22:45;8.73;84.99
69823;SHT31;57119;52.516;13.508;2023-04-25T02:25:11;8.73;84.75
69823;SHT31;57119;52.516;13.508;2023-04-25T02:27:36;8.75;84.81
69823;SHT31;57119;52.516;13.508;2023-04-25T02:30:02;8.73;84.58
69823;SHT31;57119;52.516;13.508;2023-04-25T02:32:28;8.68;84.61
69823;SHT31;57119;52.516;13.508;2023-04-25T02:34:53;8.67;84.94
69823;SHT31;57119;52.516;13.508;2023-04-25T02:37:19;8.72;84.81
69823;SHT31;57119;52.516;13.508;2023-04-25T02:39:44;8.71;85.08
69823;SHT31;57119;52.516;13.508;2023-04-25T02:42:10;8.67;84.91
69823;SHT31;57119;52.516;13.508;2023-04-25T02:44:35;8.68;84.91
69823;SHT31;57119;52.516;13.508;2023-04-25T02:47:01;8.62;85.08
69823;SHT31;57119;52.516;13.508;2023-04-25T02:49:26;8.61;85.05
69823;SHT31;57119;52.516;13.508;2023-04-25T02:51:51;8.61;85.06
69823;SHT31;57119;52.516;13.508;2023-04-25T02:54:17;8.54;85.36
69823;SHT31;57119;52.516;13.508;2023-04-25T02:56:42;8.57;85.20
69823;SHT31;57119;52.516;13.508;2023-04-25T02:59:07;8.58;85.30
69823;SHT31;57119;52.516;13.508;2023-04-25T03:01:33;8.57;85.32
69823;SHT31;57119;52.516;13.508;2023-04-25T03:03:58;8.55;85.24
69823;SHT31;57119;52.516;13.508;2023-04-25T03:06:24;8.51;85.31
69823;SHT31;57119;52.516;13.508;2023-04-25T03:08:49;8.51;85.46
69823;SHT31;57119;52.516;13.508;2023-04-25T03:11:15;8.58;85.29
69823;SHT31;57119;52.516;13.508;2023-04-25T03:13:40;8.55;85.44
69823;SHT31;57119;52.516;13.508;2023-04-25T03:16:05;8.52;85.40
69823;SHT31;57119;52.516;13.508;2023-04-25T03:18:31;8.52;85.48
69823;SHT31;57119;52.516;13.508;2023-04-25T03:20:56;8.54;85.52
69823;SHT31;57119;52.516;13.508;2023-04-25T03:23:22;8.48;85.60
69823;SHT31;57119;52.516;13.508;2023-04-25T03:25:47;8.57;85.48
69823;SHT31;57119;52.516;13.508;2023-04-25T03:28:14;8.48;85.61
69823;SHT31;57119;52.516;13.508;2023-04-25T03:30:39;8.52;85.77
69823;SHT31;57119;52.516;13.508;2023-04-25T03:33:05;8.58;85.41
69823;SHT31;57119;52.516;13.508;2023-04-25T03:35:30;8.57;85.43
69823;SHT31;57119;52.516;13.508;2023-04-25T03:37:56;8.51;85.56
69823;SHT31;57119;52.516;13.508;2023-04-25T03:40:21;8.48;85.59
69823;SHT31;57119;52.516;13.508;2023-04-25T03:42:46;8.54;85.57
69823;SHT31;57119;52.516;13.508;2023-04-25T03:45:12;8.51;85.64
69823;SHT31;57119;52.516;13.508;2023-04-25T03:47:37;8.51;85.76
69823;SHT31;57119;52.516;13.508;2023-04-25T03:50:03;8.50;85.87
69823;SHT31;57119;52.516;13.508;2023-04-25T03:52:28;8.54;85.79
69823;SHT31;57119;52.516;13.508;2023-04-25T03:54:53;8.51;85.76
69823;SHT31;57119;52.516;13.508;2023-04-25T03:57:19;8.48;85.81
69823;SHT31;57119;52.516;13.508;2023-04-25T03:59:44;8.47;86.23
69823;SHT31;57119;52.516;13.508;2023-04-25T04:02:10;8.48;85.97
69823;SHT31;57119;52.516;13.508;2023-04-25T04:04:35;8.50;86.05
69823;SHT31;57119;52.516;13.508;2023-04-25T04:07:01;8.50;85.73
69823;SHT31;57119;52.516;13.508;2023-04-25T04:09:27;8.48;86.08
69823;SHT31;57119;52.516;13.508;2023-04-25T04:11:53;8.50;86.45
69823;SHT31;57119;52.516;13.508;2023-04-25T04:14:18;8.51;85.77
69823;SHT31;57119;52.516;13.508;2023-04-25T04:16:43;8.47;85.84
69823;SHT31;57119;52.516;13.508;2023-04-25T04:19:09;8.45;86.25
69823;SHT31;57119;52.516;13.508;2023-04-25T04:21:35;8.50;86.05
69823;SHT31;57119;52.516;13.508;2023-04-25T04:24:00;8.48;85.95
69823;SHT31;57119;52.516;13.508;2023-04-25T04:26:26;8.44;85.94
69823;SHT31;57119;52.516;13.508;2023-04-25T04:28:51;8.44;85.98
69823;SHT31;57119;52.516;13.508;2023-04-25T04:31:19;8.42;86.04
69823;SHT31;57119;52.516;13.508;2023-04-25T04:33:45;8.45;86.02
69823;SHT31;57119;52.516;13.508;2023-04-25T04:36:11;8.45;86.30
69823;SHT31;57119;52.516;13.508;2023-04-25T04:38:36;8.48;86.10
69823;SHT31;57119;52.516;13.508;2023-04-25T04:41:02;8.51;86.08
69823;SHT31;57119;52.516;13.508;2023-04-25T04:43:28;8.57;85.78
69823;SHT31;57119;52.516;13.508;2023-04-25T04:45:54;8.61;85.67
69823;SHT31;57119;52.516;13.508;2023-04-25T04:48:21;8.61;85.87
69823;SHT31;57119;52.516;13.508;2023-04-25T04:50:47;8.62;85.79
69823;SHT31;57119;52.516;13.508;2023-04-25T04:53:13;8.69;85.64
69823;SHT31;57119;52.516;13.508;2023-04-25T04:55:38;8.75;85.55
69823;SHT31;57119;52.516;13.508;2023-04-25T04:58:06;8.75;85.50
69823;SHT31;57119;52.516;13.508;2023-04-25T05:00:31;8.76;85.21
69823;SHT31;57119;52.516;13.508;2023-04-25T05:02:57;8.73;85.60
69823;SHT31;57119;52.516;13.508;2023-04-25T05:05:22;8.72;85.24
69823;SHT31;57119;52.516;13.508;2023-04-25T05:07:47;8.72;85.17
69823;SHT31;57119;52.516;13.508;2023-04-25T05:10:13;8.65;85.10
69823;SHT31;57119;52.516;13.508;2023-04-25T05:12:38;8.64;85.35
69823;SHT31;57119;52.516;13.508;2023-04-25T05:15:04;8.58;85.84
69823;SHT31;57119;52.516;13.508;2023-04-25T05:17:29;8.62;85.72
69823;SHT31;57119;52.516;13.508;2023-04-25T05:19:55;8.65;85.69
69823;SHT31;57119;52.516;13.508;2023-04-25T05:22:20;8.75;85.68
69823;SHT31;57119;52.516;13.508;2023-04-25T05:24:46;8.75;85.64
69823;SHT31;57119;52.516;13.508;2023-04-25T05:27:11;8.79;85.47
69823;SHT31;57119;52.516;13.508;2023-04-25T05:29:36;8.78;85.94
69823;SHT31;57119;52.516;13.508;2023-04-25T05:32:02;8.79;85.64
69823;SHT31;57119;52.516;13.508;2023-04-25T05:34:27;8.83;85.40
69823;SHT31;57119;52.516;13.508;2023-04-25T05:36:53;8.83;85.63
69823;SHT31;57119;52.516;13.508;2023-04-25T05:39:18;8.83;85.44
69823;SHT31;57119;52.516;13.508;2023-04-25T05:41:43;8.85;85.44
69823;SHT31;57119;52.516;13.508;2023-04-25T05:44:09;8.89;85.43
69823;SHT31;57119;52.516;13.508;2023-04-25T05:46:35;8.93;85.15
69823;SHT31;57119;52.516;13.508;2023-04-25T05:49:00;8.92;85.18
69823;SHT31;57119;52.516;13.508;2023-04-25T05:51:25;8.86;85.46
69823;SHT31;57119;52.516;13.508;2023-04-25T05:53:51;8.88;85.65
69823;SHT31;57119;52.516;13.508;2023-04-25T05:56:16;8.98;85.32
69823;SHT31;57119;52.516;13.508;2023-04-25T05:58:42;9.00;85.30
69823;SHT31;57119;52.516;13.508;2023-04-25T06:01:07;8.95;85.41
69823;SHT31;57119;52.516;13.508;2023-04-25T06:03:32;8.99;85.60
69823;SHT31;57119;52.516;13.508;2023-04-25T06:05:58;9.08;85.39
69823;SHT31;57119;52.516;13.508;2023-04-25T06:08:23;9.12;85.16
69823;SHT31;57119;52.516;13.508;2023-04-25T06:10:48;9.09;85.34
69823;SHT31;57119;52.516;13.508;2023-04-25T06:13:14;9.09;85.26
69823;SHT31;57119;52.516;13.508;2023-04-25T06:15:40;9.10;85.72
69823;SHT31;57119;52.516;13.508;2023-04-25T06:18:06;8.99;85.62
69823;SHT31;57119;52.516;13.508;2023-04-25T06:20:31;8.96;85.88
69823;SHT31;57119;52.516;13.508;2023-04-25T06:22:57;8.96;86.17
69823;SHT31;57119;52.516;13.508;2023-04-25T06:25:22;9.00;86.19
69823;SHT31;57119;52.516;13.508;2023-04-25T06:27:47;8.96;86.08
69823;SHT31;57119;52.516;13.508;2023-04-25T06:30:13;9.02;86.10
69823;SHT31;57119;52.516;13.508;2023-04-25T06:32:38;9.15;86.27
69823;SHT31;57119;52.516;13.508;2023-04-25T06:35:04;9.19;85.77
69823;SHT31;57119;52.516;13.508;2023-04-25T06:37:30;9.03;86.31
69823;SHT31;57119;52.516;13.508;2023-04-25T06:39:55;9.08;86.25
69823;SHT31;57119;52.516;13.508;2023-04-25T06:42:21;9.12;86.50
69823;SHT31;57119;52.516;13.508;2023-04-25T06:44:46;9.10;86.40
69823;SHT31;57119;52.516;13.508;2023-04-25T06:47:12;9.17;86.24
69823;SHT31;57119;52.516;13.508;2023-04-25T06:49:37;9.17;86.57
69823;SHT31;57119;52.516;13.508;2023-04-25T06:52:02;9.23;86.54
69823;SHT31;57119;52.516;13.508;2023-04-25T06:54:28;9.27;86.24
69823;SHT31;57119;52.516;13.508;2023-04-25T06:56:55;9.24;86.33
69823;SHT31;57119;52.516;13.508;2023-04-25T06:59:21;9.30;86.18
69823;SHT31;57119;52.516;13.508;2023-04-25T07:01:47;9.26;86.21
69823;SHT31;57119;52.516;13.508;2023-04-25T07:04:12;9.27;86.52
69823;SHT31;57119;52.516;13.508;2023-04-25T07:06:38;9.30;86.68
69823;SHT31;57119;52.516;13.508;2023-04-25T07:09:08;9.34;86.43
69823;SHT31;57119;52.516;13.508;2023-04-25T07:11:34;9.34;86.55
69823;SHT31;57119;52.516;13.508;2023-04-25T07:13:59;9.31;86.52
69823;SHT31;57119;52.516;13.508;2023-04-25T07:16:25;9.37;86.85
69823;SHT31;57119;52.516;13.508;2023-04-25T07:18:50;9.33;86.63
69823;SHT31;57119;52.516;13.508;2023-04-25T07:21:15;9.22;86.89
69823;SHT31;57119;52.516;13.508;2023-04-25T07:23:41;9.16;86.88
69823;SHT31;57119;52.516;13.508;2023-04-25T07:26:06;9.15;86.73
69823;SHT31;57119;52.516;13.508;2023-04-25T07:28:32;9.06;87.42
69823;SHT31;57119;52.516;13.508;2023-04-25T07:30:58;9.03;87.35
69823;SHT31;57119;52.516;13.508;2023-04-25T07:33:23;8.89;87.68
69823;SHT31;57119;52.516;13.508;2023-04-25T07:35:49;8.86;87.85
69823;SHT31;57119;52.516;13.508;2023-04-25T07:38:15;8.92;87.59
69823;SHT31;57119;52.516;13.508;2023-04-25T07:40:40;8.93;87.12
69823;SHT31;57119;52.516;13.508;2023-04-25T07:43:06;9.09;86.44
69823;SHT31;57119;52.516;13.508;2023-04-25T07:45:31;9.22;85.78
69823;SHT31;57119;52.516;13.508;2023-04-25T07:47:56;9.31;85.35
69823;SHT31;57119;52.516;13.508;2023-04-25T07:50:22;9.48;85.30
69823;SHT31;57119;52.516;13.508;2023-04-25T07:52:47;9.43;84.51
69823;SHT31;57119;52.516;13.508;2023-04-25T07:55:13;9.47;84.87
69823;SHT31;57119;52.516;13.508;2023-04-25T07:57:38;9.70;83.99
69823;SHT31;57119;52.516;13.508;2023-04-25T08:00:04;9.75;82.96
69823;SHT31;57119;52.516;13.508;2023-04-25T08:02:34;9.68;82.95
69823;SHT31;57119;52.516;13.508;2023-04-25T08:04:59;9.68;82.84
69823;SHT31;57119;52.516;13.508;2023-04-25T08:07:24;9.68;82.74
69823;SHT31;57119;52.516;13.508;2023-04-25T08:09:50;9.57;82.82
69823;SHT31;57119;52.516;13.508;2023-04-25T08:12:15;9.43;83.46
69823;SHT31;57119;52.516;13.508;2023-04-25T08:14:41;9.43;83.79
69823;SHT31;57119;52.516;13.508;2023-04-25T08:17:06;9.48;82.66
69823;SHT31;57119;52.516;13.508;2023-04-25T08:19:31;9.78;80.68
69823;SHT31;57119;52.516;13.508;2023-04-25T08:21:57;10.08;78.33
69823;SHT31;57119;52.516;13.508;2023-04-25T08:24:23;10.32;78.39
69823;SHT31;57119;52.516;13.508;2023-04-25T08:26:48;10.42;78.48
69823;SHT31;57119;52.516;13.508;2023-04-25T08:29:14;10.20;78.30
69823;SHT31;57119;52.516;13.508;2023-04-25T08:31:40;10.25;78.52
69823;SHT31;57119;52.516;13.508;2023-04-25T08:34:05;10.28;78.68
69823;SHT31;57119;52.516;13.508;2023-04-25T08:36:31;10.30;78.94
69823;SHT31;57119;52.516;13.508;2023-04-25T08:38:56;10.87;78.81
69823;SHT31;57119;52.516;13.508;2023-04-25T08:41:22;11.21;76.54
69823;SHT31;57119;52.516;13.508;2023-04-25T08:43:49;11.36;75.66
69823;SHT31;57119;52.516;13.508;2023-04-25T08:46:17;11.08;76.00
69823;SHT31;57119;52.516;13.508;2023-04-25T08:48:44;11.04;75.54
69823;SHT31;57119;52.516;13.508;2023-04-25T08:51:15;10.95;75.32
69823;SHT31;57119;52.516;13.508;2023-04-25T08:53:45;11.07;75.39
69823;SHT31;57119;52.516;13.508;2023-04-25T08:56:16;10.95;73.89
69823;SHT31;57119;52.516;13.508;2023-04-25T08:58:43;10.64;73.76
69823;SHT31;57119;52.516;13.508;2023-04-25T09:01:11;10.91;73.26
69823;SHT31;57119;52.516;13.508;2023-04-25T09:03:36;11.32;71.35
69823;SHT31;57119;52.516;13.508;2023-04-25T09:06:02;12.34;68.98
69823;SHT31;57119;52.516;13.508;2023-04-25T09:08:28;12.20;68.53
69823;SHT31;57119;52.516;13.508;2023-04-25T09:10:53;12.27;68.19
69823;SHT31;57119;52.516;13.508;2023-04-25T09:13:27;12.73;66.79
69823;SHT31;57119;52.516;13.508;2023-04-25T09:15:55;14.30;63.89
69823;SHT31;57119;52.516;13.508;2023-04-25T09:18:28;15.25;62.00
69823;SHT31;57119;52.516;13.508;2023-04-25T09:20:56;15.73;58.94
69823;SHT31;57119;52.516;13.508;2023-04-25T09:23:22;15.84;58.31
69823;SHT31;57119;52.516;13.508;2023-04-25T09:25:51;16.71;56.26
69823;SHT31;57119;52.516;13.508;2023-04-25T09:28:24;17.07;56.63
69823;SHT31;57119;52.516;13.508;2023-04-25T09:30:56;17.08;53.81
69823;SHT31;57119;52.516;13.508;2023-04-25T09:33:28;17.07;52.94
69823;SHT31;57119;52.516;13.508;2023-04-25T09:36:01;15.35;55.36
69823;SHT31;57119;52.516;13.508;2023-04-25T09:38:30;15.50;55.55
69823;SHT31;57119;52.516;13.508;2023-04-25T09:40:55;16.02;54.96
69823;SHT31;57119;52.516;13.508;2023-04-25T09:43:22;15.13;56.16
69823;SHT31;57119;52.516;13.508;2023-04-25T09:45:49;15.88;56.32
69823;SHT31;57119;52.516;13.508;2023-04-25T09:48:19;15.44;56.42
69823;SHT31;57119;52.516;13.508;2023-04-25T09:53:39;13.79;58.53
69823;SHT31;57119;52.516;13.508;2023-04-25T09:56:07;12.73;60.67
69823;SHT31;57119;52.516;13.508;2023-04-25T09:58:34;12.11;61.85
69823;SHT31;57119;52.516;13.508;2023-04-25T10:01:02;12.27;61.40
69823;SHT31;57119;52.516;13.508;2023-04-25T10:03:32;12.55;61.10
69823;SHT31;57119;52.516;13.508;2023-04-25T10:06:03;12.56;60.64
69823;SHT31;57119;52.516;13.508;2023-04-25T10:08:34;12.67;60.63
69823;SHT31;57119;52.516;13.508;2023-04-25T10:11:02;12.69;59.64
69823;SHT31;57119;52.516;13.508;2023-04-25T10:13:31;13.17;59.07
69823;SHT31;57119;52.516;13.508;2023-04-25T10:15:58;14.77;56.29
69823;SHT31;57119;52.516;13.508;2023-04-25T10:18:25;15.43;54.82
69823;SHT31;57119;52.516;13.508;2023-04-25T10:20:54;14.81;55.93
69823;SHT31;57119;52.516;13.508;2023-04-25T10:23:19;13.93;55.82
69823;SHT31;57119;52.516;13.508;2023-04-25T10:25:45;13.24;58.18
69823;SHT31;57119;52.516;13.508;2023-04-25T10:28:11;13.17;58.07
69823;SHT31;57119;52.516;13.508;2023-04-25T10:30:36;13.33;57.63
69823;SHT31;57119;52.516;13.508;2023-04-25T10:33:16;13.06;58.65
69823;SHT31;57119;52.516;13.508;2023-04-25T10:35:41;12.94;57.57
69823;SHT31;57119;52.516;13.508;2023-04-25T10:38:10;12.86;57.73
69823;SHT31;57119;52.516;13.508;2023-04-25T10:40:37;13.07;57.53
69823;SHT31;57119;52.516;13.508;2023-04-25T10:45:58;13.03;57.94
69823;SHT31;57119;52.516;13.508;2023-04-25T10:48:25;12.59;58.88
69823;SHT31;57119;52.516;13.508;2023-04-25T10:51:07;12.66;58.78
69823;SHT31;57119;52.516;13.508;2023-04-25T10:53:33;12.44;59.47
69823;SHT31;57119;52.516;13.508;2023-04-25T10:55:59;12.53;59.16
69823;SHT31;57119;52.516;13.508;2023-04-25T10:58:25;12.41;58.85
69823;SHT31;57119;52.516;13.508;2023-04-25T11:00:51;11.98;58.76
69823;SHT31;57119;52.516;13.508;2023-04-25T11:03:17;12.13;59.16
69823;SHT31;57119;52.516;13.508;2023-04-25T11:05:46;12.29;58.38
69823;SHT31;57119;52.516;13.508;2023-04-25T11:08:20;12.31;58.44
69823;SHT31;57119;52.516;13.508;2023-04-25T11:10:50;12.10;58.36
69823;SHT31;57119;52.516;13.508;2023-04-25T11:13:15;12.38;59.15
69823;SHT31;57119;52.516;13.508;2023-04-25T11:15:42;12.39;58.39
69823;SHT31;57119;52.516;13.508;2023-04-25T11:18:07;12.53;58.35
69823;SHT31;57119;52.516;13.508;2023-04-25T11:20:32;12.49;57.83
69823;SHT31;57119;52.516;13.508;2023-04-25T11:22:58;12.11;58.01
69823;SHT31;57119;52.516;13.508;2023-04-25T11:25:26;11.79;58.90
69823;SHT31;57119;52.516;13.508;2023-04-25T11:27:56;11.58;59.85
69823;SHT31;57119;52.516;13.508;2023-04-25T11:30:24;11.18;60.74
69823;SHT31;57119;52.516;13.508;2023-04-25T11:32:49;10.95;61.03
69823;SHT31;57119;52.516;13.508;2023-04-25T11:35:16;10.78;61.63
69823;SHT31;57119;52.516;13.508;2023-04-25T11:37:44;10.52;61.68
69823;SHT31;57119;52.516;13.508;2023-04-25T11:40:10;10.43;61.87
69823;SHT31;57119;52.516;13.508;2023-04-25T11:42:37;10.52;61.54
69823;SHT31;57119;52.516;13.508;2023-04-25T11:45:03;10.67;61.73
69823;SHT31;57119;52.516;13.508;2023-04-25T11:47:30;10.90;60.63
69823;SHT31;57119;52.516;13.508;2023-04-25T11:50:01;11.12;60.40
69823;SHT31;57119;52.516;13.508;2023-04-25T11:52:40;11.05;59.18
69823;SHT31;57119;52.516;13.508;2023-04-25T11:55:16;11.21;59.01
69823;SHT31;57119;52.516;13.508;2023-04-25T11:57:43;11.18;58.32
69823;SHT31;57119;52.516;13.508;2023-04-25T12:00:13;11.12;58.98
69823;SHT31;57119;52.516;13.508;2023-04-25T12:02:41;11.40;59.20
69823;SHT31;57119;52.516;13.508;2023-04-25T12:05:08;11.70;58.21
69823;SHT31;57119;52.516;13.508;2023-04-25T12:07:34;12.08;57.74
69823;SHT31;57119;52.516;13.508;2023-04-25T12:10:07;11.90;57.36
69823;SHT31;57119;52.516;13.508;2023-04-25T12:12:34;12.11;57.34
69823;SHT31;57119;52.516;13.508;2023-04-25T12:15:16;12.25;57.51
69823;SHT31;57119;52.516;13.508;2023-04-25T12:17:48;12.46;57.04
69823;SHT31;57119;52.516;13.508;2023-04-25T12:20:20;12.46;56.91
69823;SHT31;57119;52.516;13.508;2023-04-25T12:22:47;12.48;56.35
69823;SHT31;57119;52.516;13.508;2023-04-25T12:25:42;12.25;57.18
69823;SHT31;57119;52.516;13.508;2023-04-25T12:31:00;12.07;57.82
69823;SHT31;57119;52.516;13.508;2023-04-25T12:33:29;12.41;56.49
69823;SHT31;57119;52.516;13.508;2023-04-25T12:35:56;12.62;56.43
69823;SHT31;57119;52.516;13.508;2023-04-25T12:38:27;12.76;54.66
69823;SHT31;57119;52.516;13.508;2023-04-25T12:40:53;13.03;53.63
69823;SHT31;57119;52.516;13.508;2023-04-25T12:43:19;13.55;53.05
69823;SHT31;57119;52.516;13.508;2023-04-25T12:45:47;14.06;52.61
69823;SHT31;57119;52.516;13.508;2023-04-25T12:48:12;15.27;50.78
69823;SHT31;57119;52.516;13.508;2023-04-25T12:50:38;14.93;49.71
69823;SHT31;57119;52.516;13.508;2023-04-25T12:53:03;13.83;51.74
69823;SHT31;57119;52.516;13.508;2023-04-25T12:55:29;13.08;52.36
69823;SHT31;57119;52.516;13.508;2023-04-25T12:57:54;12.69;54.19
69823;SHT31;57119;52.516;13.508;2023-04-25T13:00:20;12.62;54.56
69823;SHT31;57119;52.516;13.508;2023-04-25T13:02:45;12.18;55.16
69823;SHT31;57119;52.516;13.508;2023-04-25T13:05:13;12.13;55.31
69823;SHT31;57119;52.516;13.508;2023-04-25T13:07:39;12.08;55.99
69823;SHT31;57119;52.516;13.508;2023-04-25T13:10:05;11.89;54.85
69823;SHT31;57119;52.516;13.508;2023-04-25T13:12:31;11.95;53.52
69823;SHT31;57119;52.516;13.508;2023-04-25T13:14:56;12.29;53.10
69823;SHT31;57119;52.516;13.508;2023-04-25T13:17:22;12.66;53.36
69823;SHT31;57119;52.516;13.508;2023-04-25T13:19:47;13.07;51.84
69823;SHT31;57119;52.516;13.508;2023-04-25T13:22:12;13.73;51.19
69823;SHT31;57119;52.516;13.508;2023-04-25T13:24:40;16.42;47.99
69823;SHT31;57119;52.516;13.508;2023-04-25T13:27:06;18.25;45.73
69823;SHT31;57119;52.516;13.508;2023-04-25T13:29:31;20.02;43.21
69823;SHT31;57119;52.516;13.508;2023-04-25T13:31:59;18.91;42.86
69823;SHT31;57119;52.516;13.508;2023-04-25T13:34:24;17.27;45.62
69823;SHT31;57119;52.516;13.508;2023-04-25T13:36:50;14.72;48.82
69823;SHT31;57119;52.516;13.508;2023-04-25T13:39:15;13.63;51.15
69823;SHT31;57119;52.516;13.508;2023-04-25T13:41:40;12.96;53.09
69823;SHT31;57119;52.516;13.508;2023-04-25T13:44:06;12.70;54.50
69823;SHT31;57119;52.516;13.508;2023-04-25T13:46:31;12.76;54.94
69823;SHT31;57119;52.516;13.508;2023-04-25T13:48:57;12.76;55.07
69823;SHT31;57119;52.516;13.508;2023-04-25T13:51:22;12.48;55.97
69823;SHT31;57119;52.516;13.508;2023-04-25T13:53:47;12.34;56.56
69823;SHT31;57119;52.516;13.508;2023-04-25T13:56:13;12.48;57.11
69823;SHT31;57119;52.516;13.508;2023-04-25T13:58:38;12.67;56.32
69823;SHT31;57119;52.516;13.508;2023-04-25T14:01:04;12.82;56.33
69823;SHT31;57119;52.516;13.508;2023-04-25T14:03:30;12.96;55.71
69823;SHT31;57119;52.516;13.508;2023-04-25T14:05:55;14.13;54.43
69823;SHT31;57119;52.516;13.508;2023-04-25T14:08:21;14.34;53.76
69823;SHT31;57119;52.516;13.508;2023-04-25T14:10:46;13.44;54.13
69823;SHT31;57119;52.516;13.508;2023-04-25T14:13:12;12.87;55.80
69823;SHT31;57119;52.516;13.508;2023-04-25T14:15:37;12.52;57.33
69823;SHT31;57119;52.516;13.508;2023-04-25T14:18:03;12.11;57.11
69823;SHT31;57119;52.516;13.508;2023-04-25T14:20:28;11.84;58.05
69823;SHT31;57119;52.516;13.508;2023-04-25T14:22:54;11.58;58.76
69823;SHT31;57119;52.516;13.508;2023-04-25T14:25:21;11.46;59.38
69823;SHT31;57119;52.516;13.508;2023-04-25T14:27:47;11.36;59.45
69823;SHT31;57119;52.516;13.508;2023-04-25T14:30:16;11.05;59.41
69823;SHT31;57119;52.516;13.508;2023-04-25T14:32:41;10.88;59.80
69823;SHT31;57119;52.516;13.508;2023-04-25T14:35:07;10.87;60.12
69823;SHT31;57119;52.516;13.508;2023-04-25T14:37:32;10.88;60.51
69823;SHT31;57119;52.516;13.508;2023-04-25T14:39:58;10.92;58.98
69823;SHT31;57119;52.516;13.508;2023-04-25T14:42:23;11.11;58.18
69823;SHT31;57119;52.516;13.508;2023-04-25T14:44:48;11.32;57.72
69823;SHT31;57119;52.516;13.508;2023-04-25T14:47:14;12.07;57.31
69823;SHT31;57119;52.516;13.508;2023-04-25T14:49:40;12.45;55.92
69823;SHT31;57119;52.516;13.508;2023-04-25T14:52:06;12.55;55.55
69823;SHT31;57119;52.516;13.508;2023-04-25T14:54:31;12.27;57.13
69823;SHT31;57119;52.516;13.508;2023-04-25T14:56:57;12.29;57.64
69823;SHT31;57119;52.516;13.508;2023-04-25T14:59:22;12.07;58.11
69823;SHT31;57119;52.516;13.508;2023-04-25T15:01:48;11.55;58.95
69823;SHT31;57119;52.516;13.508;2023-04-25T15:04:14;10.87;60.79
69823;SHT31;57119;52.516;13.508;2023-04-25T15:06:40;10.74;61.98
69823;SHT31;57119;52.516;13.508;2023-04-25T15:09:05;10.57;62.70
69823;SHT31;57119;52.516;13.508;2023-04-25T15:11:31;10.50;62.80
69823;SHT31;57119;52.516;13.508;2023-04-25T15:13:56;10.59;63.19
69823;SHT31;57119;52.516;13.508;2023-04-25T15:16:22;10.43;64.16
69823;SHT31;57119;52.516;13.508;2023-04-25T15:18:47;10.20;64.49
69823;SHT31;57119;52.516;13.508;2023-04-25T15:21:12;10.08;65.17
69823;SHT31;57119;52.516;13.508;2023-04-25T15:23:38;10.13;65.33
69823;SHT31;57119;52.516;13.508;2023-04-25T15:26:03;10.22;64.76
69823;SHT31;57119;52.516;13.508;2023-04-25T15:28:29;10.33;64.78